Anshan, China
Current Conditions -  °F | °C
As of 9:00 AM on Sunday 23 Nov 2014 (Local Time) from ZYTX Reporting Station
Clear Clear  
Wind Chill:   Ceiling: Unl
Heat Index:   Visibility: 5mi
Dew Point: -7°   Wind: 2mph
Humidity: 52%   Direction: NA
Pressure: 30.24"   Gusts: NA
Location:  41.12°N, 122.95°E
Report Text: ZYTX 230100Z VRB01MPS 8000 NSC 02/M07 Q1024 NOSIG
Loading
Personal Weather Stations






























Interactive Weather Map New forecast layout! Learn more

10-Day Weather Forecast

Advertisements
Track Severe Weather on mobile